Time;durP1;ratioP1;P1;durP2;ratioP2;P2;SDS_P1;SDS_P2;PMS_P1;PMS_P2;Temp;Humidity;BMP_temperature;BMP_pressure;BME280_temperature;BME280_humidity;BME280_pressure;Samples;Min_cycle;Max_cycle;Signal;HPM_P1;HPM_P2
2023/06/07 00:00:22;;;;;;;10.55;7.25;;;486.90;2380.80;;;;;;5008737;28;20032;-58
2023/06/07 00:02:47;;;;;;;9.57;7.40;;;486.90;2380.80;;;;;;5008900;28;20030;-58
2023/06/07 00:05:13;;;;;;;9.48;6.93;;;486.90;2380.80;;;;;;5008586;28;20026;-59
2023/06/07 00:07:39;;;;;;;8.60;7.35;;;486.90;2380.80;;;;;;5008930;28;20037;-58
2023/06/07 00:10:06;;;;;;;8.35;7.10;;;486.90;2380.80;;;;;;5008566;28;20038;-65
2023/06/07 00:12:32;;;;;;;10.13;7.82;;;486.90;2380.80;;;;;;5008120;28;20547;-59
2023/06/07 00:14:59;;;;;;;10.48;8.43;;;486.90;2380.80;;;;;;5009362;28;20034;-58
2023/06/07 00:17:27;;;;;;;92.43;75.72;;;487.00;2380.80;;;;;;5021663;28;20053;-55
2023/06/07 00:19:53;;;;;;;77.70;70.45;;;487.00;2380.80;;;;;;5013606;28;20022;-54
2023/06/07 00:22:19;;;;;;;13.38;8.68;;;486.90;2380.80;;;;;;5009889;28;20022;-59
2023/06/07 00:24:45;;;;;;;12.02;8.80;;;486.80;2380.80;;;;;;5012193;28;20026;-55
2023/06/07 00:27:11;;;;;;;9.80;7.38;;;486.80;2380.80;;;;;;5009842;28;20034;-58
2023/06/07 00:29:36;;;;;;;9.93;7.97;;;486.80;2380.80;;;;;;5010212;28;20032;-54
2023/06/07 00:32:02;;;;;;;9.90;7.53;;;486.80;2380.80;;;;;;5009490;28;20045;-55
2023/06/07 00:34:28;;;;;;;10.02;8.63;;;486.90;2380.80;;;;;;5009566;28;20036;-58
2023/06/07 00:36:54;;;;;;;11.15;9.82;;;486.80;2380.80;;;;;;5009674;28;20034;-59
2023/06/07 00:39:22;;;;;;;12.32;9.07;;;486.90;2380.80;;;;;;5009485;28;20030;-59
2023/06/07 00:41:48;;;;;;;10.93;9.07;;;486.90;2380.80;;;;;;5009608;28;20093;-60
2023/06/07 00:44:13;;;;;;;11.70;8.32;;;486.80;2380.80;;;;;;5009373;28;20164;-57
2023/06/07 00:46:39;;;;;;;10.15;8.80;;;486.80;2380.80;;;;;;5009539;28;20022;-60
2023/06/07 00:49:06;;;;;;;13.93;8.73;;;486.80;2380.80;;;;;;5016644;28;20018;-56
2023/06/07 00:51:31;;;;;;;15.23;9.05;;;486.70;2380.80;;;;;;5014624;28;20042;-57
2023/06/07 00:54:00;;;;;;;8.80;7.85;;;486.70;2380.80;;;;;;5009779;28;20076;-60
2023/06/07 00:56:27;;;;;;;11.32;8.23;;;486.60;2380.80;;;;;;5022961;28;20034;-56
2023/06/07 00:58:53;;;;;;;10.93;9.60;;;486.60;2380.80;;;;;;5022435;28;20479;-60
2023/06/07 01:01:19;;;;;;;13.48;9.10;;;486.50;2380.80;;;;;;5009483;28;20025;-59
2023/06/07 01:03:45;;;;;;;9.50;8.52;;;486.50;2380.80;;;;;;5008863;28;20454;-59
2023/06/07 01:06:13;;;;;;;11.38;9.48;;;486.50;2380.80;;;;;;5022233;28;20025;-57
2023/06/07 01:08:40;;;;;;;11.93;9.23;;;486.50;2380.80;;;;;;5009436;28;20065;-60
2023/06/07 01:11:07;;;;;;;14.32;8.60;;;486.50;2380.80;;;;;;5009619;28;20038;-60
2023/06/07 01:13:33;;;;;;;11.73;9.43;;;486.40;2380.80;;;;;;5009420;28;20416;-57
2023/06/07 01:15:59;;;;;;;13.32;8.93;;;461.70;2380.80;;;;;;5009469;28;20018;-59
2023/06/07 01:18:26;;;;;;;10.95;8.77;;;461.70;2380.80;;;;;;5009144;28;20083;-58
2023/06/07 01:20:57;;;;;;;14.05;9.90;;;461.70;2380.80;;;;;;5009568;28;20018;-56
2023/06/07 01:23:32;;;;;;;11.98;9.82;;;461.70;2380.80;;;;;;5009027;28;20018;-60
2023/06/07 01:25:59;;;;;;;12.93;9.20;;;461.70;2380.80;;;;;;5009422;28;20403;-59
2023/06/07 01:28:28;;;;;;;10.57;9.23;;;461.60;2380.80;;;;;;5009200;28;20025;-56
2023/06/07 01:30:55;;;;;;;11.88;9.43;;;461.60;2380.80;;;;;;5009261;28;20037;-57
2023/06/07 01:33:21;;;;;;;16.13;9.13;;;461.50;2380.80;;;;;;5007913;28;20026;-56
2023/06/07 01:35:52;;;;;;;11.68;8.77;;;461.50;2380.80;;;;;;5011375;28;20026;-57
2023/06/07 01:38:20;;;;;;;14.82;9.68;;;461.50;2380.80;;;;;;5013183;28;20042;-60
2023/06/07 01:40:47;;;;;;;13.77;10.10;;;461.50;2380.80;;;;;;5012993;28;20034;-57
2023/06/07 01:43:14;;;;;;;13.60;9.80;;;461.50;2380.80;;;;;;5013267;28;20112;-60
2023/06/07 01:45:42;;;;;;;12.13;9.60;;;461.40;2380.80;;;;;;5014819;28;20029;-56
2023/06/07 01:48:09;;;;;;;13.40;9.52;;;461.40;2380.80;;;;;;5032813;28;20033;-57
2023/06/07 01:50:34;;;;;;;12.00;9.98;;;461.40;2380.80;;;;;;5032788;28;20033;-57
2023/06/07 01:53:00;;;;;;;12.73;9.65;;;461.40;2380.80;;;;;;5033022;28;20072;-56
2023/06/07 01:55:27;;;;;;;15.52;10.02;;;461.40;2380.80;;;;;;5032747;28;20025;-56
2023/06/07 01:58:20;;;;;;;11.90;9.68;;;461.30;2380.80;;;;;;5032654;28;20444;-58
2023/06/07 02:00:49;;;;;;;11.07;8.95;;;461.30;2380.80;;;;;;5031186;28;20395;-56
2023/06/07 02:03:32;;;;;;;12.55;9.77;;;461.30;2380.80;;;;;;5032098;28;20087;-57
2023/06/07 02:06:03;;;;;;;;;;;461.30;2380.80;;;;;;5032976;28;20422;-57
2023/06/07 02:08:45;;;;;;;11.80;8.73;;;461.30;2380.80;;;;;;5032908;28;19959;-59
2023/06/07 02:11:13;;;;;;;10.65;9.13;;;461.20;2380.80;;;;;;5032581;28;20069;-59
2023/06/07 02:13:42;;;;;;;13.88;10.60;;;461.20;2380.80;;;;;;5032467;28;20423;-56
2023/06/07 02:16:07;;;;;;;13.32;10.23;;;461.10;2380.80;;;;;;5032261;28;20031;-56
2023/06/07 02:18:40;;;;;;;11.80;9.77;;;461.20;2380.80;;;;;;5032305;28;20077;-60
2023/06/07 02:21:06;;;;;;;13.55;8.45;;;461.20;2380.80;;;;;;5032224;28;20022;-56
2023/06/07 02:23:32;;;;;;;11.32;9.98;;;461.10;2380.80;;;;;;5031882;28;20033;-60
2023/06/07 02:25:58;;;;;;;14.00;9.27;;;461.10;2380.80;;;;;;5032361;28;20040;-57
2023/06/07 02:28:24;;;;;;;10.70;9.57;;;461.10;2380.80;;;;;;5032209;28;20472;-60
2023/06/07 02:30:51;;;;;;;11.50;8.77;;;461.10;2380.80;;;;;;5032062;28;20421;-61
2023/06/07 02:33:21;;;;;;;12.80;9.52;;;461.10;2380.80;;;;;;5031906;28;20491;-56
2023/06/07 02:35:47;;;;;;;15.18;10.00;;;461.10;2380.80;;;;;;5031841;28;20029;-58
2023/06/07 02:38:13;;;;;;;13.35;9.70;;;461.10;2380.80;;;;;;5031886;28;20064;-56
2023/06/07 02:40:39;;;;;;;11.57;9.80;;;461.10;2380.80;;;;;;5031923;28;20029;-59
2023/06/07 02:43:05;;;;;;;14.05;9.50;;;461.10;2380.80;;;;;;5031254;28;20039;-58
2023/06/07 02:45:30;;;;;;;12.57;9.02;;;461.10;2380.80;;;;;;5031420;28;20476;-59
2023/06/07 02:47:56;;;;;;;12.85;9.70;;;461.10;2380.80;;;;;;5032026;28;20024;-56
2023/06/07 02:50:22;;;;;;;11.80;9.73;;;461.10;2380.80;;;;;;5031433;28;20095;-60
2023/06/07 02:52:48;;;;;;;13.30;9.38;;;461.00;2380.80;;;;;;5031930;28;20033;-56
2023/06/07 02:55:14;;;;;;;11.82;10.60;;;461.00;2380.80;;;;;;5031464;28;20026;-56
2023/06/07 02:57:42;;;;;;;13.82;10.88;;;461.10;2380.80;;;;;;5031884;28;20057;-56
2023/06/07 03:00:11;;;;;;;12.27;10.98;;;461.00;2380.80;;;;;;5031528;28;20026;-60
2023/06/07 03:02:40;;;;;;;11.82;9.35;;;461.00;2380.80;;;;;;5031432;28;20021;-56
2023/06/07 03:05:07;;;;;;;11.20;10.00;;;460.90;2380.80;;;;;;5031471;28;20018;-56
2023/06/07 03:07:35;;;;;;;14.30;10.45;;;460.90;2380.80;;;;;;5031124;28;20025;-57
2023/06/07 03:10:01;;;;;;;15.82;9.23;;;460.90;2380.80;;;;;;5031369;28;20095;-56
2023/06/07 03:12:27;;;;;;;11.95;8.90;;;460.90;2380.80;;;;;;5031339;28;20030;-56
2023/06/07 03:14:53;;;;;;;11.40;8.98;;;460.90;2380.80;;;;;;5030558;28;20029;-56
2023/06/07 03:17:18;;;;;;;11.68;8.90;;;460.90;2380.80;;;;;;5031005;28;20044;-55
2023/06/07 03:19:44;;;;;;;10.45;8.57;;;460.90;2380.80;;;;;;5030850;28;20025;-56
2023/06/07 03:22:10;;;;;;;11.35;9.43;;;460.90;2380.80;;;;;;5031403;28;20026;-57
2023/06/07 03:24:38;;;;;;;14.70;9.52;;;461.00;2380.80;;;;;;5030803;28;20159;-57
2023/06/07 03:27:10;;;;;;;12.98;10.63;;;461.00;2380.80;;;;;;5030822;28;20147;-58
2023/06/07 03:29:36;;;;;;;12.23;10.20;;;461.00;2380.80;;;;;;5030667;28;20048;-54
2023/06/07 03:32:02;;;;;;;14.35;10.23;;;461.00;2380.80;;;;;;5030494;28;20029;-56
2023/06/07 03:34:29;;;;;;;13.02;8.75;;;461.00;2380.80;;;;;;5031077;28;20022;-56
2023/06/07 03:36:55;;;;;;;14.30;10.70;;;461.10;2380.80;;;;;;5030283;28;20076;-57
2023/06/07 03:39:21;;;;;;;13.02;9.07;;;461.10;2380.80;;;;;;5030991;28;20017;-56
2023/06/07 03:41:47;;;;;;;12.60;9.60;;;461.10;2380.80;;;;;;5030424;28;20403;-57
2023/06/07 03:44:12;;;;;;;10.00;8.07;;;461.10;2380.80;;;;;;5030661;28;20124;-56
2023/06/07 03:46:38;;;;;;;12.30;8.82;;;461.20;2380.80;;;;;;5030550;28;20511;-59
2023/06/07 03:49:04;;;;;;;17.48;9.65;;;461.40;2380.80;;;;;;5030379;28;20028;-56
2023/06/07 03:51:32;;;;;;;12.85;8.32;;;461.50;2380.80;;;;;;5030731;28;20079;-60
2023/06/07 03:53:57;;;;;;;10.80;8.70;;;461.70;2380.80;;;;;;5030859;28;20029;-60
2023/06/07 03:56:23;;;;;;;11.80;9.25;;;486.40;2380.80;;;;;;5030322;28;20025;-56
2023/06/07 03:58:49;;;;;;;16.27;9.75;;;461.70;2380.80;;;;;;5029571;28;20049;-58
2023/06/07 04:01:17;;;;;;;10.80;8.98;;;461.70;2380.80;;;;;;5030239;28;20033;-57
2023/06/07 04:03:43;;;;;;;14.73;9.40;;;486.40;2380.80;;;;;;5030265;28;20430;-56
2023/06/07 04:06:09;;;;;;;14.82;9.65;;;486.40;2380.80;;;;;;5029914;28;20033;-56
2023/06/07 04:08:36;;;;;;;10.20;8.57;;;486.40;2380.80;;;;;;5029700;28;20033;-61
2023/06/07 04:11:02;;;;;;;12.45;10.15;;;461.60;2380.80;;;;;;5030152;28;20029;-55
2023/06/07 04:13:28;;;;;;;13.25;10.32;;;461.60;2380.80;;;;;;5030197;28;20395;-55
2023/06/07 04:15:54;;;;;;;15.50;10.07;;;461.70;2380.80;;;;;;5030097;28;20060;-56
2023/06/07 04:18:19;;;;;;;12.52;8.85;;;486.70;2380.80;;;;;;5030267;28;20044;-56
2023/06/07 04:20:45;;;;;;;11.75;9.23;;;486.60;2380.80;;;;;;5029666;28;20083;-60
2023/06/07 04:23:11;;;;;;;14.27;8.38;;;486.70;2380.80;;;;;;5030131;28;20040;-57
2023/06/07 04:25:38;;;;;;;10.90;9.52;;;486.80;2380.80;;;;;;5029877;28;20022;-56
2023/06/07 04:28:04;;;;;;;25.13;10.68;;;486.90;2380.80;;;;;;5029844;28;20029;-56
2023/06/07 04:30:36;;;;;;;12.85;9.95;;;486.90;2380.80;;;;;;5030115;28;20032;-56
2023/06/07 04:33:08;;;;;;;9.88;8.82;;;487.00;2380.80;;;;;;5029389;28;20061;-59
2023/06/07 04:35:44;;;;;;;13.35;9.48;;;487.10;2380.80;;;;;;5029250;28;20025;-56
2023/06/07 04:38:23;;;;;;;12.27;9.73;;;487.00;2380.80;;;;;;5029620;28;20133;-61
2023/06/07 04:40:50;;;;;;;14.43;9.38;;;486.90;2380.80;;;;;;5029539;28;20096;-58
2023/06/07 04:43:19;;;;;;;16.35;9.73;;;486.90;2380.80;;;;;;5029447;28;20418;-56
2023/06/07 04:45:54;;;;;;;10.77;9.65;;;486.90;2380.80;;;;;;5028839;28;20239;-56
2023/06/07 04:48:25;;;;;;;11.35;9.68;;;487.00;2380.80;;;;;;5028780;28;20091;-55
2023/06/07 04:50:53;;;;;;;14.90;9.95;;;487.00;2380.80;;;;;;5029117;28;20514;-56
2023/06/07 04:53:22;;;;;;;10.88;9.48;;;487.10;2380.80;;;;;;5029729;28;20057;-58
2023/06/07 04:55:48;;;;;;;15.13;10.23;;;487.10;2380.80;;;;;;5029843;28;20047;-57
2023/06/07 04:58:18;;;;;;;12.60;9.10;;;487.30;2380.80;;;;;;5029363;28;20035;-56
2023/06/07 05:00:45;;;;;;;16.30;10.32;;;512.10;2380.80;;;;;;5029205;28;20029;-55
2023/06/07 05:03:13;;;;;;;14.15;9.20;;;512.40;2380.80;;;;;;5029438;28;20618;-58
2023/06/07 05:05:42;;;;;;;10.30;8.52;;;538.00;2406.40;;;;;;5029068;28;20029;-58
2023/06/07 05:08:08;;;;;;;13.85;9.73;;;563.30;2432.00;;;;;;5029327;28;20040;-57
2023/06/07 05:10:34;;;;;;;15.32;9.10;;;563.50;2432.00;;;;;;5028931;28;20026;-60
2023/06/07 05:12:59;;;;;;;12.70;8.40;;;564.10;2432.00;;;;;;5029357;28;20038;-57
2023/06/07 05:15:25;;;;;;;13.10;8.75;;;589.60;2432.00;;;;;;5028753;28;20531;-57
2023/06/07 05:17:51;;;;;;;11.93;8.25;;;666.40;2432.00;;;;;;5029164;28;20083;-58
2023/06/07 05:20:17;;;;;;;15.48;8.48;;;716.90;2278.40;;;;;;5028963;28;20034;-56
2023/06/07 05:22:43;;;;;;;8.80;7.85;;;742.40;2176.00;;;;;;5028733;28;20025;-54
2023/06/07 05:25:11;;;;;;;12.45;8.80;;;742.40;2176.00;;;;;;5028713;28;20467;-57
2023/06/07 05:27:40;;;;;;;16.88;9.25;;;717.40;2124.80;;;;;;5016313;28;20018;-56
2023/06/07 05:30:07;;;;;;;16.85;9.52;;;717.10;2150.40;;;;;;5029077;28;20416;-56
2023/06/07 05:32:33;;;;;;;11.52;9.75;;;717.10;2124.80;;;;;;5028683;28;20387;-59
2023/06/07 05:35:00;;;;;;;13.77;8.90;;;717.20;2124.80;;;;;;5028761;28;20022;-57
2023/06/07 05:37:26;;;;;;;12.30;9.55;;;717.30;2124.80;;;;;;5028200;28;20032;-56
2023/06/07 05:39:52;;;;;;;10.48;8.27;;;742.40;2099.20;;;;;;5028858;28;20030;-57
2023/06/07 05:42:18;;;;;;;12.60;8.25;;;717.20;2099.20;;;;;;5028800;28;20056;-59
2023/06/07 05:44:45;;;;;;;16.27;8.90;;;666.50;2201.60;;;;;;5015561;28;20375;-55
2023/06/07 05:47:12;;;;;;;11.98;8.95;;;665.60;2278.40;;;;;;5028399;28;20470;-57
2023/06/07 05:49:37;;;;;;;11.75;8.75;;;640.40;2355.20;;;;;;5028827;28;20025;-56
2023/06/07 05:52:03;;;;;;;11.45;7.88;;;640.80;2355.20;;;;;;5028232;28;20076;-56
2023/06/07 05:54:29;;;;;;;11.98;8.65;;;665.90;2329.60;;;;;;5028598;28;20026;-60
2023/06/07 05:56:55;;;;;;;12.15;8.43;;;691.90;2201.60;;;;;;5028518;28;20083;-60
2023/06/07 05:59:21;;;;;;;12.10;8.45;;;717.00;2150.40;;;;;;5028772;28;20025;-56
2023/06/07 06:01:48;;;;;;;12.63;8.40;;;717.50;2124.80;;;;;;5028503;28;20053;-63
2023/06/07 06:04:13;;;;;;;13.05;8.75;;;717.40;2124.80;;;;;;5028405;28;20022;-56
2023/06/07 06:06:41;;;;;;;11.25;9.15;;;717.30;2124.80;;;;;;5028644;28;20037;-60
2023/06/07 06:09:06;;;;;;;10.50;9.30;;;743.10;2048.00;;;;;;5028086;28;20465;-58
2023/06/07 06:11:32;;;;;;;14.40;9.90;;;794.30;1894.40;;;;;;5028606;28;20132;-57
2023/06/07 06:13:58;;;;;;;12.32;9.45;;;794.50;1868.80;;;;;;5028402;28;20021;-58
2023/06/07 06:16:23;;;;;;;9.25;8.32;;;820.00;1843.20;;;;;;5024645;28;20038;-58
2023/06/07 06:18:50;;;;;;;11.95;9.48;;;794.00;1894.40;;;;;;5027793;28;20033;-58
2023/06/07 06:21:15;;;;;;;18.15;9.15;;;845.10;1792.00;;;;;;5029435;28;20037;-57
2023/06/07 06:23:41;;;;;;;9.10;7.95;;;870.80;1664.00;;;;;;5032097;28;20420;-58
2023/06/07 06:26:07;;;;;;;12.27;8.52;;;845.60;1740.80;;;;;;5031901;28;20029;-60
2023/06/07 06:28:32;;;;;;;11.32;8.57;;;844.90;1766.40;;;;;;5031992;28;20017;-58
2023/06/07 06:31:01;;;;;;;10.38;8.68;;;793.80;1868.80;;;;;;5031751;28;20343;-58
2023/06/07 06:33:27;;;;;;;11.93;9.50;;;768.70;1894.40;;;;;;5031863;28;20084;-58
2023/06/07 06:35:53;;;;;;;10.55;8.27;;;819.30;1792.00;;;;;;5031865;28;20048;-56
2023/06/07 06:38:19;;;;;;;11.93;8.13;;;870.40;1689.60;;;;;;5031643;28;20495;-56
2023/06/07 06:40:45;;;;;;;11.98;9.55;;;871.10;1638.40;;;;;;5031361;28;20043;-63
2023/06/07 06:43:11;;;;;;;10.52;8.68;;;820.10;1740.80;;;;;;5031410;28;20041;-56
2023/06/07 06:45:38;;;;;;;10.32;9.25;;;870.70;1689.60;;;;;;5031892;28;20021;-56
2023/06/07 06:48:05;;;;;;;11.13;9.55;;;973.50;1459.20;;;;;;5031391;28;20112;-57
2023/06/07 06:50:31;;;;;;;10.50;9.48;;;973.70;1433.60;;;;;;5031484;28;20021;-56
2023/06/07 06:52:56;;;;;;;11.50;8.38;;;896.60;1561.60;;;;;;5031278;28;20099;-61
2023/06/07 06:55:22;;;;;;;10.45;8.65;;;947.20;1484.80;;;;;;5031566;28;20108;-57
2023/06/07 06:57:48;;;;;;;21.80;10.07;;;999.30;1382.40;;;;;;5031790;28;20419;-64
2023/06/07 07:00:14;;;;;;;9.82;8.88;;;973.00;1433.60;;;;;;5031160;28;20022;-64
2023/06/07 07:02:40;;;;;;;8.50;7.78;;;1024.90;1331.20;;;;;;5031669;28;20022;-72
2023/06/07 07:05:06;;;;;;;8.20;7.43;;;1050.10;1305.60;;;;;;5031188;28;20048;-67
2023/06/07 07:07:33;;;;;;;9.70;8.82;;;1075.30;1254.40;;;;;;5031033;28;20038;-61
2023/06/07 07:09:59;;;;;;;9.05;8.25;;;1024.10;1305.60;;;;;;5031293;28;20021;-70
2023/06/07 07:12:25;;;;;;;9.90;9.10;;;1050.40;1254.40;;;;;;5031516;28;20029;-71
2023/06/07 07:14:51;;;;;;;9.15;8.25;;;1101.60;1177.60;;;;;;5031376;28;20075;-61
2023/06/07 07:17:17;;;;;;;9.95;9.05;;;1126.40;1203.20;;;;;;5030994;28;20098;-57
2023/06/07 07:19:43;;;;;;;14.88;9.00;;;1075.30;1228.80;;;;;;5016292;28;20033;-62
2023/06/07 07:22:09;;;;;;;9.10;8.13;;;1127.00;1152.00;;;;;;5030974;28;20036;-55
2023/06/07 07:24:35;;;;;;;9.60;8.70;;;1075.80;1203.20;;;;;;5030535;28;20104;-56
2023/06/07 07:27:01;;;;;;;9.38;8.57;;;1075.40;1203.20;;;;;;5031283;28;20033;-64
2023/06/07 07:29:27;;;;;;;10.35;9.30;;;1100.90;1177.60;;;;;;5018342;28;20024;-57
2023/06/07 07:31:53;;;;;;;9.20;8.25;;;;;;;;;;5031043;28;20030;-56
2023/06/07 07:34:19;;;;;;;8.85;8.05;;;1101.20;1152.00;;;;;;5031041;28;20018;-56
2023/06/07 07:36:45;;;;;;;9.63;8.82;;;1101.40;1177.60;;;;;;5030336;28;20033;-57
2023/06/07 07:39:11;;;;;;;8.27;7.35;;;1100.80;1177.60;;;;;;5030880;28;20029;-58
2023/06/07 07:41:40;;;;;;;15.27;9.65;;;1050.10;1228.80;;;;;;5030308;28;20120;-58
2023/06/07 07:44:06;;;;;;;11.38;10.15;;;1075.40;1152.00;;;;;;5030618;28;20036;-55
2023/06/07 07:46:31;;;;;;;8.15;7.45;;;1075.60;1177.60;;;;;;5030353;28;20033;-58
2023/06/07 07:48:57;;;;;;;9.10;6.80;;;1024.50;1254.40;;;;;;5030590;28;20025;-58
2023/06/07 07:51:23;;;;;;;11.25;7.00;;;999.20;1228.80;;;;;;5030584;28;20034;-56
2023/06/07 07:53:52;;;;;;;8.18;7.38;;;947.40;1331.20;;;;;;5031184;28;20025;-58
2023/06/07 07:56:18;;;;;;;9.75;8.85;;;998.60;1280.00;;;;;;5014549;28;20026;-61
2023/06/07 07:58:45;;;;;;;10.20;9.20;;;999.10;1280.00;;;;;;5019166;28;20079;-59
2023/06/07 08:01:11;;;;;;;11.20;8.50;;;1101.00;1152.00;;;;;;5010756;28;20029;-61
2023/06/07 08:03:37;;;;;;;11.25;10.18;;;1101.40;1126.40;;;;;;5013090;28;20030;-58
2023/06/07 08:06:03;;;;;;;9.45;8.50;;;1024.60;1228.80;;;;;;5030046;28;20048;-57
2023/06/07 08:08:29;;;;;;;9.27;8.40;;;1075.70;1152.00;;;;;;5019610;28;20038;-58
2023/06/07 08:10:55;;;;;;;16.00;8.88;;;1075.30;1177.60;;;;;;5010297;28;20468;-63
2023/06/07 08:13:20;;;;;;;7.60;6.85;;;1024.30;1203.20;;;;;;5016578;28;20061;-56
2023/06/07 08:15:47;;;;;;;9.15;7.35;;;922.00;1331.20;;;;;;5018054;28;20025;-57
2023/06/07 08:18:15;;;;;;;8.95;7.57;;;870.50;1459.20;;;;;;5019974;28;20111;-56
2023/06/07 08:20:41;;;;;;;8.93;8.13;;;871.30;1408.00;;;;;;5029593;28;20037;-69
2023/06/07 08:23:07;;;;;;;9.35;8.27;;;896.40;1433.60;;;;;;5029772;28;20033;-57
2023/06/07 08:25:33;;;;;;;12.18;9.20;;;870.70;1459.20;;;;;;5029822;28;20104;-57
2023/06/07 08:27:58;;;;;;;9.63;8.68;;;820.00;1536.00;;;;;;5029934;28;20029;-62
2023/06/07 08:30:24;;;;;;;10.55;9.55;;;794.40;1587.20;;;;;;5030075;28;20021;-60
2023/06/07 08:32:50;;;;;;;9.77;8.77;;;820.10;1561.60;;;;;;5029514;28;20113;-57
2023/06/07 08:35:16;;;;;;;10.98;9.88;;;845.20;1561.60;;;;;;5029345;28;20083;-57
2023/06/07 08:37:42;;;;;;;10.43;8.77;;;845.70;1561.60;;;;;;5029691;28;20044;-59
2023/06/07 08:40:11;;;;;;;12.95;9.70;;;845.40;1561.60;;;;;;5029426;28;20029;-65
2023/06/07 08:42:39;;;;;;;9.30;8.30;;;845.70;1536.00;;;;;;5029395;28;20056;-57
2023/06/07 08:45:05;;;;;;;10.57;9.50;;;845.40;1561.60;;;;;;5029155;28;20048;-57
2023/06/07 08:47:33;;;;;;;11.43;10.10;;;819.20;1638.40;;;;;;5029487;28;20044;-56
2023/06/07 08:50:00;;;;;;;11.57;10.48;;;819.20;1612.80;;;;;;5029576;28;20231;-62
2023/06/07 08:52:26;;;;;;;10.43;9.32;;;794.10;1638.40;;;;;;5028913;28;20050;-57
2023/06/07 08:54:58;;;;;;;10.15;8.85;;;768.90;1689.60;;;;;;5029375;28;20078;-58
2023/06/07 08:57:25;;;;;;;9.65;8.75;;;768.40;1715.20;;;;;;5029355;28;20030;-58
2023/06/07 08:59:51;;;;;;;10.00;9.00;;;;;;;;;;5029464;28;20028;-57
2023/06/07 09:02:19;;;;;;;9.93;8.93;;;;;;;;;;5029087;28;20033;-57
2023/06/07 09:04:46;;;;;;;11.77;9.02;;;768.90;1715.20;;;;;;5029150;28;20020;-57
2023/06/07 09:07:12;;;;;;;11.20;8.88;;;794.40;1689.60;;;;;;5029042;28;20064;-57
2023/06/07 09:09:43;;;;;;;13.77;8.98;;;768.90;1715.20;;;;;;5029148;28;20167;-57
2023/06/07 09:12:12;;;;;;;9.02;8.13;;;793.70;1766.40;;;;;;5029198;28;20493;-57
2023/06/07 09:14:39;;;;;;;10.20;9.20;;;793.90;1689.60;;;;;;5029170;28;20021;-57
2023/06/07 09:17:06;;;;;;;9.93;9.02;;;;;;;;;;5028673;28;20017;-57
2023/06/07 09:19:39;;;;;;;10.13;8.68;;;768.90;1715.20;;;;;;5029276;28;20033;-57
2023/06/07 09:22:07;;;;;;;9.57;8.60;;;768.10;1792.00;;;;;;5028728;28;20032;-57
2023/06/07 09:24:33;;;;;;;14.30;12.93;;;;;;;;;;5028917;28;20037;-57
2023/06/07 09:27:01;;;;;;;10.32;9.23;;;768.20;1766.40;;;;;;5029297;28;20224;-59
2023/06/07 09:29:29;;;;;;;10.70;9.48;;;742.40;1843.20;;;;;;5028833;28;20021;-58
2023/06/07 09:31:56;;;;;;;10.13;9.07;;;717.20;1894.40;;;;;;5028929;28;20442;-57
2023/06/07 09:34:23;;;;;;;10.43;9.20;;;717.20;1843.20;;;;;;5028849;28;20017;-57
2023/06/07 09:36:56;;;;;;;9.30;8.40;;;742.70;1792.00;;;;;;5028512;28;20531;-59
2023/06/07 09:39:32;;;;;;;15.30;10.40;;;743.00;1817.60;;;;;;5028045;28;20036;-56
2023/06/07 09:41:58;;;;;;;11.00;9.95;;;742.50;1843.20;;;;;;5028420;28;20045;-57
2023/06/07 09:44:29;;;;;;;9.93;8.25;;;742.60;1843.20;;;;;;5028808;28;20029;-60
2023/06/07 09:46:58;;;;;;;10.25;9.25;;;768.10;1792.00;;;;;;5028093;28;20073;-70
2023/06/07 09:49:34;;;;;;;11.30;10.20;;;743.10;1792.00;;;;;;5028979;28;20068;-60
2023/06/07 09:52:03;;;;;;;11.82;9.88;;;742.80;1792.00;;;;;;5028565;28;20041;-63
2023/06/07 09:54:39;;;;;;;11.70;10.50;;;742.90;1817.60;;;;;;5028818;28;20021;-57
2023/06/07 09:57:09;;;;;;;10.82;9.82;;;768.30;1766.40;;;;;;5031474;28;20026;-66
2023/06/07 09:59:37;;;;;;;11.90;10.43;;;768.10;1766.40;;;;;;5032146;28;20104;-58
2023/06/07 10:02:26;;;;;;;43.08;24.05;;;742.50;1817.60;;;;;;5032413;28;20033;-61
2023/06/07 10:04:52;;;;;;;11.27;9.48;;;743.30;1766.40;;;;;;5032979;28;20026;-57
2023/06/07 10:07:21;;;;;;;23.55;15.68;;;768.60;1715.20;;;;;;5032340;28;20551;-56
2023/06/07 10:09:52;;;;;;;12.77;10.27;;;768.90;1715.20;;;;;;5031823;28;20379;-55
2023/06/07 10:12:23;;;;;;;9.55;8.43;;;743.10;1817.60;;;;;;5032638;28;20033;-56
2023/06/07 10:14:51;;;;;;;11.00;9.20;;;743.10;1766.40;;;;;;5032337;28;20018;-57
2023/06/07 10:17:22;;;;;;;12.13;10.85;;;742.50;1843.20;;;;;;5032544;28;20033;-57
2023/06/07 10:19:52;;;;;;;12.07;10.73;;;717.50;1868.80;;;;;;5032661;28;20029;-56
2023/06/07 10:22:24;;;;;;;15.35;10.93;;;;;;;;;;5032230;28;20088;-57
2023/06/07 10:25:04;;;;;;;11.68;9.13;;;742.50;1868.80;;;;;;5032590;28;20373;-56
2023/06/07 10:27:37;;;;;;;12.32;10.63;;;717.20;1894.40;;;;;;5032293;28;20030;-57
2023/06/07 10:30:10;;;;;;;11.77;9.63;;;692.00;1920.00;;;;;;5031908;28;20116;-65
2023/06/07 10:32:38;;;;;;;13.45;9.35;;;717.10;1945.60;;;;;;5031837;28;20044;-57
2023/06/07 10:35:09;;;;;;;10.45;9.40;;;692.10;1920.00;;;;;;5031804;28;20044;-57
2023/06/07 10:37:37;;;;;;;11.00;9.93;;;716.90;1945.60;;;;;;5031672;28;20029;-56
2023/06/07 10:40:10;;;;;;;10.40;8.50;;;717.10;1971.20;;;;;;5031683;28;20033;-56
2023/06/07 10:42:41;;;;;;;11.15;9.88;;;717.40;1894.40;;;;;;5031573;28;20061;-57
2023/06/07 10:45:11;;;;;;;12.10;9.88;;;717.70;1868.80;;;;;;5031819;28;20025;-57
2023/06/07 10:47:37;;;;;;;10.45;8.93;;;742.90;1843.20;;;;;;5031805;28;20075;-56
2023/06/07 10:50:04;;;;;;;14.93;9.13;;;743.20;1843.20;;;;;;5032115;28;20018;-61
2023/06/07 10:52:29;;;;;;;11.65;9.20;;;742.50;1868.80;;;;;;5031545;28;20037;-57
2023/06/07 10:54:55;;;;;;;12.73;9.68;;;717.50;1894.40;;;;;;5032057;28;20018;-69
2023/06/07 10:57:37;;;;;;;11.45;10.00;;;717.50;1894.40;;;;;;5032052;28;20025;-56
2023/06/07 11:00:29;;;;;;;9.82;8.88;;;717.50;1920.00;;;;;;5020118;28;20029;-57
2023/06/07 11:03:08;;;;;;;9.77;8.77;;;717.20;1920.00;;;;;;5030974;28;20033;-56
2023/06/07 11:05:52;;;;;;;9.93;9.00;;;692.10;1920.00;;;;;;5031117;28;20028;-63
2023/06/07 11:08:26;;;;;;;12.60;8.90;;;717.00;1920.00;;;;;;5031195;28;20030;-56
2023/06/07 11:10:59;;;;;;;13.27;9.40;;;717.70;1920.00;;;;;;5031481;28;20052;-57
2023/06/07 11:13:43;;;;;;;10.02;9.00;;;717.70;1894.40;;;;;;5031350;28;20037;-63
2023/06/07 11:16:36;;;;;;;11.13;9.80;;;742.50;1920.00;;;;;;5031703;28;20038;-69
2023/06/07 11:19:09;;;;;;;12.97;9.97;;;742.40;1920.00;;;;;;5030245;28;20108;-56
2023/06/07 11:22:06;;;;;;;14.43;9.20;;;717.40;1920.00;;;;;;5031086;28;20262;-57
2023/06/07 11:24:34;;;;;;;10.05;9.05;;;717.60;1920.00;;;;;;5021865;28;20029;-59
2023/06/07 11:27:00;;;;;;;11.80;9.63;;;717.00;1945.60;;;;;;5031188;28;20379;-57
2023/06/07 11:29:27;;;;;;;11.10;9.48;;;717.00;1945.60;;;;;;5031086;28;20022;-56
2023/06/07 11:32:00;;;;;;;10.73;9.73;;;716.90;1945.60;;;;;;5030602;28;20069;-57
2023/06/07 11:34:30;;;;;;;12.05;10.85;;;717.10;1945.60;;;;;;5030815;28;20175;-63
2023/06/07 11:37:14;;;;;;;13.05;11.50;;;717.00;1971.20;;;;;;5030636;28;20044;-61
2023/06/07 11:39:39;;;;;;;;;;;716.90;1971.20;;;;;;5031207;28;20506;-56
2023/06/07 11:42:06;;;;;;;12.90;11.25;;;717.20;1971.20;;;;;;5030490;28;19917;-66
2023/06/07 11:44:34;;;;;;;15.50;13.95;;;691.80;1996.80;;;;;;5030518;28;20037;-56
2023/06/07 11:47:05;;;;;;;13.75;11.30;;;717.40;1996.80;;;;;;5029955;28;20037;-67
2023/06/07 11:49:32;;;;;;;13.23;10.13;;;717.40;1920.00;;;;;;5030930;28;20495;-56
2023/06/07 11:51:58;;;;;;;13.23;11.02;;;717.00;1920.00;;;;;;5030729;28;20041;-66
2023/06/07 11:54:27;;;;;;;13.20;11.80;;;717.20;1971.20;;;;;;5030865;28;20055;-57
2023/06/07 11:56:53;;;;;;;14.60;13.30;;;716.90;1996.80;;;;;;5029895;28;20036;-56
2023/06/07 11:59:21;;;;;;;13.90;12.30;;;692.00;1971.20;;;;;;5030416;28;20025;-57
2023/06/07 12:01:52;;;;;;;15.65;12.93;;;691.50;2022.40;;;;;;5029833;28;20057;-63
2023/06/07 12:04:18;;;;;;;14.77;12.82;;;691.50;1996.80;;;;;;5028978;28;20040;-56
2023/06/07 12:06:46;;;;;;;15.55;13.95;;;692.00;1945.60;;;;;;5029454;28;20044;-70
2023/06/07 12:09:12;;;;;;;15.98;14.23;;;691.90;1971.20;;;;;;5030302;28;20040;-61
2023/06/07 12:11:38;;;;;;;14.48;13.10;;;691.90;2022.40;;;;;;5029948;28;20041;-56
2023/06/07 12:14:06;;;;;;;14.90;13.43;;;691.90;1945.60;;;;;;5030465;28;20025;-66